sensor_id;sensor_type;location;lat;lon;timestamp;P1;durP1;ratioP1;P2;durP2;ratioP2
49876;SDS011;35771;48.978;9.294;2022-07-29T07:21:44;11.73;;;3.70;;
49876;SDS011;35771;48.978;9.294;2022-07-29T07:24:11;4.65;;;3.08;;
49876;SDS011;35771;48.978;9.294;2022-07-29T07:26:37;4.35;;;2.60;;
49876;SDS011;35771;48.978;9.294;2022-07-29T07:29:04;2.80;;;2.60;;
49876;SDS011;35771;48.978;9.294;2022-07-29T07:31:31;4.70;;;2.67;;
49876;SDS011;35771;48.978;9.294;2022-07-29T07:33:58;6.80;;;2.67;;
49876;SDS011;35771;48.978;9.294;2022-07-29T07:36:24;5.82;;;2.70;;
49876;SDS011;35771;48.978;9.294;2022-07-29T07:38:52;4.20;;;3.00;;
49876;SDS011;35771;48.978;9.294;2022-07-29T07:41:19;9.50;;;2.63;;
49876;SDS011;35771;48.978;9.294;2022-07-29T07:43:46;6.95;;;2.58;;
49876;SDS011;35771;48.978;9.294;2022-07-29T07:46:12;7.20;;;2.53;;
49876;SDS011;35771;48.978;9.294;2022-07-29T07:48:39;5.97;;;2.65;;
49876;SDS011;35771;48.978;9.294;2022-07-29T07:51:06;2.90;;;2.60;;
49876;SDS011;35771;48.978;9.294;2022-07-29T07:53:33;5.63;;;2.80;;
49876;SDS011;35771;48.978;9.294;2022-07-29T07:56:01;4.00;;;2.38;;
49876;SDS011;35771;48.978;9.294;2022-07-29T07:58:29;4.95;;;2.58;;
49876;SDS011;35771;48.978;9.294;2022-07-29T08:00:55;3.55;;;2.50;;
49876;SDS011;35771;48.978;9.294;2022-07-29T08:03:22;4.00;;;2.58;;
49876;SDS011;35771;48.978;9.294;2022-07-29T08:05:49;4.70;;;2.60;;
49876;SDS011;35771;48.978;9.294;2022-07-29T08:08:16;4.05;;;2.70;;
49876;SDS011;35771;48.978;9.294;2022-07-29T08:10:42;10.85;;;3.20;;
49876;SDS011;35771;48.978;9.294;2022-07-29T08:13:19;7.00;;;3.58;;
49876;SDS011;35771;48.978;9.294;2022-07-29T08:15:47;3.63;;;2.80;;
49876;SDS011;35771;48.978;9.294;2022-07-29T08:18:22;5.25;;;2.60;;
49876;SDS011;35771;48.978;9.294;2022-07-29T08:20:49;6.68;;;2.75;;
49876;SDS011;35771;48.978;9.294;2022-07-29T08:23:15;6.80;;;2.67;;
49876;SDS011;35771;48.978;9.294;2022-07-29T08:25:43;3.28;;;2.75;;
49876;SDS011;35771;48.978;9.294;2022-07-29T08:28:10;7.00;;;2.85;;
49876;SDS011;35771;48.978;9.294;2022-07-29T08:30:38;4.45;;;2.78;;
49876;SDS011;35771;48.978;9.294;2022-07-29T08:33:04;3.47;;;3.00;;
49876;SDS011;35771;48.978;9.294;2022-07-29T08:35:31;4.05;;;2.72;;
49876;SDS011;35771;48.978;9.294;2022-07-29T08:37:58;3.90;;;2.60;;
49876;SDS011;35771;48.978;9.294;2022-07-29T08:40:24;3.38;;;2.47;;
49876;SDS011;35771;48.978;9.294;2022-07-29T08:42:51;9.80;;;2.80;;
49876;SDS011;35771;48.978;9.294;2022-07-29T08:45:17;7.45;;;2.67;;
49876;SDS011;35771;48.978;9.294;2022-07-29T08:47:46;4.15;;;2.92;;
49876;SDS011;35771;48.978;9.294;2022-07-29T08:50:12;4.60;;;2.53;;
49876;SDS011;35771;48.978;9.294;2022-07-29T08:52:40;3.28;;;2.60;;
49876;SDS011;35771;48.978;9.294;2022-07-29T08:55:08;5.40;;;2.40;;
49876;SDS011;35771;48.978;9.294;2022-07-29T08:57:36;6.85;;;2.67;;
49876;SDS011;35771;48.978;9.294;2022-07-29T09:00:05;5.28;;;2.58;;
49876;SDS011;35771;48.978;9.294;2022-07-29T09:02:35;8.00;;;2.80;;
49876;SDS011;35771;48.978;9.294;2022-07-29T09:05:06;3.85;;;3.13;;
49876;SDS011;35771;48.978;9.294;2022-07-29T09:07:34;8.43;;;2.58;;
49876;SDS011;35771;48.978;9.294;2022-07-29T09:10:07;6.03;;;2.85;;
49876;SDS011;35771;48.978;9.294;2022-07-29T09:12:34;4.50;;;2.97;;
49876;SDS011;35771;48.978;9.294;2022-07-29T09:15:01;7.88;;;2.78;;
49876;SDS011;35771;48.978;9.294;2022-07-29T09:17:41;6.68;;;2.78;;
49876;SDS011;35771;48.978;9.294;2022-07-29T09:20:11;4.07;;;2.70;;
49876;SDS011;35771;48.978;9.294;2022-07-29T09:22:39;3.10;;;2.70;;
49876;SDS011;35771;48.978;9.294;2022-07-29T09:25:06;5.57;;;2.97;;
49876;SDS011;35771;48.978;9.294;2022-07-29T09:27:33;13.23;;;4.85;;
49876;SDS011;35771;48.978;9.294;2022-07-29T09:30:01;5.63;;;3.22;;
49876;SDS011;35771;48.978;9.294;2022-07-29T09:32:30;8.60;;;3.28;;
49876;SDS011;35771;48.978;9.294;2022-07-29T09:35:20;3.95;;;3.03;;
49876;SDS011;35771;48.978;9.294;2022-07-29T09:37:49;4.72;;;3.20;;
49876;SDS011;35771;48.978;9.294;2022-07-29T09:40:16;5.80;;;3.20;;
49876;SDS011;35771;48.978;9.294;2022-07-29T09:42:44;4.72;;;3.10;;
49876;SDS011;35771;48.978;9.294;2022-07-29T09:45:12;9.98;;;3.38;;
49876;SDS011;35771;48.978;9.294;2022-07-29T09:47:51;3.97;;;2.90;;
49876;SDS011;35771;48.978;9.294;2022-07-29T09:50:20;8.50;;;3.13;;
49876;SDS011;35771;48.978;9.294;2022-07-29T09:55:16;6.40;;;3.60;;
49876;SDS011;35771;48.978;9.294;2022-07-29T09:57:43;9.13;;;3.45;;
49876;SDS011;35771;48.978;9.294;2022-07-29T10:00:11;4.65;;;3.10;;
49876;SDS011;35771;48.978;9.294;2022-07-29T10:02:40;3.67;;;3.20;;
49876;SDS011;35771;48.978;9.294;2022-07-29T10:05:16;9.48;;;4.07;;
49876;SDS011;35771;48.978;9.294;2022-07-29T10:07:47;12.02;;;2.80;;
49876;SDS011;35771;48.978;9.294;2022-07-29T10:12:49;10.40;;;5.40;;
49876;SDS011;35771;48.978;9.294;2022-07-29T10:15:18;4.22;;;3.20;;
49876;SDS011;35771;48.978;9.294;2022-07-29T10:17:47;6.87;;;3.30;;
49876;SDS011;35771;48.978;9.294;2022-07-29T10:20:14;10.13;;;3.70;;
49876;SDS011;35771;48.978;9.294;2022-07-29T10:22:42;5.20;;;3.05;;
49876;SDS011;35771;48.978;9.294;2022-07-29T10:25:10;7.35;;;3.05;;
49876;SDS011;35771;48.978;9.294;2022-07-29T10:27:37;5.70;;;2.78;;
49876;SDS011;35771;48.978;9.294;2022-07-29T10:30:08;6.95;;;3.55;;
49876;SDS011;35771;48.978;9.294;2022-07-29T10:35:41;4.50;;;3.28;;
49876;SDS011;35771;48.978;9.294;2022-07-29T10:38:27;8.07;;;3.33;;
49876;SDS011;35771;48.978;9.294;2022-07-29T10:41:05;4.32;;;2.85;;
49876;SDS011;35771;48.978;9.294;2022-07-29T10:43:54;4.72;;;2.97;;
49876;SDS011;35771;48.978;9.294;2022-07-29T10:46:23;3.13;;;2.53;;
49876;SDS011;35771;48.978;9.294;2022-07-29T10:49:06;6.03;;;2.97;;
49876;SDS011;35771;48.978;9.294;2022-07-29T10:51:56;3.80;;;2.60;;
49876;SDS011;35771;48.978;9.294;2022-07-29T10:57:21;5.68;;;2.95;;
49876;SDS011;35771;48.978;9.294;2022-07-29T11:02:53;13.13;;;3.45;;
49876;SDS011;35771;48.978;9.294;2022-07-29T11:05:23;5.15;;;2.88;;
49876;SDS011;35771;48.978;9.294;2022-07-29T11:10:48;3.47;;;2.65;;
49876;SDS011;35771;48.978;9.294;2022-07-29T11:16:17;5.32;;;2.70;;
49876;SDS011;35771;48.978;9.294;2022-07-29T11:21:48;5.65;;;2.80;;
49876;SDS011;35771;48.978;9.294;2022-07-29T11:24:17;8.35;;;3.08;;
49876;SDS011;35771;48.978;9.294;2022-07-29T11:26:46;8.60;;;3.20;;
49876;SDS011;35771;48.978;9.294;2022-07-29T11:29:34;3.67;;;2.70;;
49876;SDS011;35771;48.978;9.294;2022-07-29T11:32:10;4.40;;;2.50;;
49876;SDS011;35771;48.978;9.294;2022-07-29T11:34:40;7.07;;;2.70;;
49876;SDS011;35771;48.978;9.294;2022-07-29T11:37:19;3.05;;;2.45;;
49876;SDS011;35771;48.978;9.294;2022-07-29T11:42:47;5.97;;;3.05;;
49876;SDS011;35771;48.978;9.294;2022-07-29T11:45:17;3.92;;;2.55;;
49876;SDS011;35771;48.978;9.294;2022-07-29T11:47:50;9.18;;;3.40;;
49876;SDS011;35771;48.978;9.294;2022-07-29T11:50:26;6.72;;;2.90;;
49876;SDS011;35771;48.978;9.294;2022-07-29T11:52:58;10.68;;;2.72;;
49876;SDS011;35771;48.978;9.294;2022-07-29T11:55:25;4.93;;;3.10;;
49876;SDS011;35771;48.978;9.294;2022-07-29T11:57:52;6.60;;;2.78;;
49876;SDS011;35771;48.978;9.294;2022-07-29T12:00:25;5.63;;;2.83;;
49876;SDS011;35771;48.978;9.294;2022-07-29T12:02:54;5.38;;;2.53;;
49876;SDS011;35771;48.978;9.294;2022-07-29T12:05:24;6.90;;;2.97;;
49876;SDS011;35771;48.978;9.294;2022-07-29T12:08:03;7.80;;;2.60;;
49876;SDS011;35771;48.978;9.294;2022-07-29T12:10:34;5.65;;;2.63;;
49876;SDS011;35771;48.978;9.294;2022-07-29T12:13:01;6.25;;;2.40;;
49876;SDS011;35771;48.978;9.294;2022-07-29T12:15:30;5.63;;;2.20;;
49876;SDS011;35771;48.978;9.294;2022-07-29T12:17:57;7.03;;;2.55;;
49876;SDS011;35771;48.978;9.294;2022-07-29T12:20:24;6.80;;;3.17;;
49876;SDS011;35771;48.978;9.294;2022-07-29T12:22:52;4.57;;;2.50;;
49876;SDS011;35771;48.978;9.294;2022-07-29T12:25:20;8.00;;;2.53;;
49876;SDS011;35771;48.978;9.294;2022-07-29T12:27:47;4.50;;;2.72;;
49876;SDS011;35771;48.978;9.294;2022-07-29T12:30:23;5.93;;;3.03;;
49876;SDS011;35771;48.978;9.294;2022-07-29T12:33:10;5.40;;;2.83;;
49876;SDS011;35771;48.978;9.294;2022-07-29T12:35:38;7.40;;;2.95;;
49876;SDS011;35771;48.978;9.294;2022-07-29T12:38:05;7.53;;;3.60;;
49876;SDS011;35771;48.978;9.294;2022-07-29T12:40:32;5.47;;;3.33;;
49876;SDS011;35771;48.978;9.294;2022-07-29T12:43:06;5.53;;;3.55;;
49876;SDS011;35771;48.978;9.294;2022-07-29T12:45:35;6.75;;;3.38;;
49876;SDS011;35771;48.978;9.294;2022-07-29T12:48:03;8.90;;;3.15;;
49876;SDS011;35771;48.978;9.294;2022-07-29T12:50:31;6.37;;;3.53;;
49876;SDS011;35771;48.978;9.294;2022-07-29T12:53:07;4.07;;;3.00;;
49876;SDS011;35771;48.978;9.294;2022-07-29T12:55:42;7.45;;;3.25;;
49876;SDS011;35771;48.978;9.294;2022-07-29T12:58:13;3.00;;;2.67;;
49876;SDS011;35771;48.978;9.294;2022-07-29T13:00:59;6.60;;;2.83;;
49876;SDS011;35771;48.978;9.294;2022-07-29T13:03:41;8.27;;;3.92;;
49876;SDS011;35771;48.978;9.294;2022-07-29T13:09:07;8.63;;;3.58;;
49876;SDS011;35771;48.978;9.294;2022-07-29T13:11:36;5.15;;;3.58;;
49876;SDS011;35771;48.978;9.294;2022-07-29T13:14:04;6.13;;;3.43;;
49876;SDS011;35771;48.978;9.294;2022-07-29T13:16:34;6.22;;;3.45;;
49876;SDS011;35771;48.978;9.294;2022-07-29T13:19:05;11.40;;;3.53;;
49876;SDS011;35771;48.978;9.294;2022-07-29T13:21:36;6.78;;;2.33;;
49876;SDS011;35771;48.978;9.294;2022-07-29T13:24:05;8.77;;;2.50;;
49876;SDS011;35771;48.978;9.294;2022-07-29T13:26:33;4.88;;;2.60;;
49876;SDS011;35771;48.978;9.294;2022-07-29T13:29:00;8.02;;;2.63;;
49876;SDS011;35771;48.978;9.294;2022-07-29T13:31:27;5.70;;;2.70;;
49876;SDS011;35771;48.978;9.294;2022-07-29T13:33:54;4.15;;;2.60;;
49876;SDS011;35771;48.978;9.294;2022-07-29T13:36:21;5.47;;;2.35;;
49876;SDS011;35771;48.978;9.294;2022-07-29T13:38:48;3.88;;;1.95;;
49876;SDS011;35771;48.978;9.294;2022-07-29T13:41:17;4.18;;;2.20;;
49876;SDS011;35771;48.978;9.294;2022-07-29T13:43:49;3.20;;;1.92;;
49876;SDS011;35771;48.978;9.294;2022-07-29T13:46:15;2.80;;;2.10;;
49876;SDS011;35771;48.978;9.294;2022-07-29T13:48:42;4.88;;;1.77;;
49876;SDS011;35771;48.978;9.294;2022-07-29T13:51:10;2.70;;;2.03;;
49876;SDS011;35771;48.978;9.294;2022-07-29T13:53:36;2.70;;;1.88;;
49876;SDS011;35771;48.978;9.294;2022-07-29T13:56:03;1.83;;;1.48;;
49876;SDS011;35771;48.978;9.294;2022-07-29T13:58:31;5.60;;;1.65;;
49876;SDS011;35771;48.978;9.294;2022-07-29T14:00:58;3.22;;;1.95;;
49876;SDS011;35771;48.978;9.294;2022-07-29T14:03:25;5.35;;;2.38;;
49876;SDS011;35771;48.978;9.294;2022-07-29T14:05:52;4.63;;;2.00;;
49876;SDS011;35771;48.978;9.294;2022-07-29T14:08:21;5.50;;;1.80;;
49876;SDS011;35771;48.978;9.294;2022-07-29T14:10:47;7.90;;;1.83;;
49876;SDS011;35771;48.978;9.294;2022-07-29T14:13:14;2.83;;;2.20;;
49876;SDS011;35771;48.978;9.294;2022-07-29T14:15:40;3.58;;;2.13;;
49876;SDS011;35771;48.978;9.294;2022-07-29T14:18:07;3.42;;;2.30;;
49876;SDS011;35771;48.978;9.294;2022-07-29T14:20:34;4.22;;;2.05;;
49876;SDS011;35771;48.978;9.294;2022-07-29T14:23:02;4.07;;;2.58;;
49876;SDS011;35771;48.978;9.294;2022-07-29T14:25:30;4.05;;;2.42;;
49876;SDS011;35771;48.978;9.294;2022-07-29T14:27:56;6.68;;;2.33;;
49876;SDS011;35771;48.978;9.294;2022-07-29T14:30:23;3.50;;;2.50;;
49876;SDS011;35771;48.978;9.294;2022-07-29T14:32:49;4.57;;;2.45;;
49876;SDS011;35771;48.978;9.294;2022-07-29T14:35:16;8.18;;;2.45;;
49876;SDS011;35771;48.978;9.294;2022-07-29T14:37:42;5.20;;;2.30;;
49876;SDS011;35771;48.978;9.294;2022-07-29T14:40:09;4.85;;;2.70;;
49876;SDS011;35771;48.978;9.294;2022-07-29T14:42:38;5.97;;;2.40;;
49876;SDS011;35771;48.978;9.294;2022-07-29T14:45:06;6.97;;;3.53;;
49876;SDS011;35771;48.978;9.294;2022-07-29T14:47:34;7.47;;;2.70;;
49876;SDS011;35771;48.978;9.294;2022-07-29T14:50:00;4.93;;;2.53;;
49876;SDS011;35771;48.978;9.294;2022-07-29T14:52:27;3.80;;;2.55;;
49876;SDS011;35771;48.978;9.294;2022-07-29T14:54:54;5.72;;;2.47;;
49876;SDS011;35771;48.978;9.294;2022-07-29T14:57:20;14.73;;;4.82;;
49876;SDS011;35771;48.978;9.294;2022-07-29T14:59:48;8.82;;;2.67;;
49876;SDS011;35771;48.978;9.294;2022-07-29T15:02:15;4.13;;;2.70;;
49876;SDS011;35771;48.978;9.294;2022-07-29T15:04:42;4.00;;;2.85;;
49876;SDS011;35771;48.978;9.294;2022-07-29T15:07:09;4.93;;;2.53;;
49876;SDS011;35771;48.978;9.294;2022-07-29T15:09:37;6.00;;;3.00;;
49876;SDS011;35771;48.978;9.294;2022-07-29T15:12:04;6.40;;;2.88;;
49876;SDS011;35771;48.978;9.294;2022-07-29T15:14:30;7.43;;;3.10;;
49876;SDS011;35771;48.978;9.294;2022-07-29T15:16:59;5.28;;;2.55;;
49876;SDS011;35771;48.978;9.294;2022-07-29T15:19:25;7.78;;;2.75;;
49876;SDS011;35771;48.978;9.294;2022-07-29T15:21:52;7.15;;;2.70;;
49876;SDS011;35771;48.978;9.294;2022-07-29T15:24:19;6.25;;;2.97;;
49876;SDS011;35771;48.978;9.294;2022-07-29T15:26:46;5.90;;;3.00;;
49876;SDS011;35771;48.978;9.294;2022-07-29T15:29:13;8.15;;;2.80;;
49876;SDS011;35771;48.978;9.294;2022-07-29T15:31:39;4.25;;;2.60;;
49876;SDS011;35771;48.978;9.294;2022-07-29T15:34:07;9.93;;;2.85;;
49876;SDS011;35771;48.978;9.294;2022-07-29T15:36:34;8.18;;;2.72;;
49876;SDS011;35771;48.978;9.294;2022-07-29T15:39:01;4.60;;;2.90;;
49876;SDS011;35771;48.978;9.294;2022-07-29T15:41:27;7.68;;;3.15;;
49876;SDS011;35771;48.978;9.294;2022-07-29T15:43:54;5.72;;;2.97;;
49876;SDS011;35771;48.978;9.294;2022-07-29T15:46:20;7.57;;;2.80;;
49876;SDS011;35771;48.978;9.294;2022-07-29T15:49:05;10.65;;;2.80;;
49876;SDS011;35771;48.978;9.294;2022-07-29T15:51:34;5.93;;;3.63;;
49876;SDS011;35771;48.978;9.294;2022-07-29T15:54:01;6.13;;;3.10;;
49876;SDS011;35771;48.978;9.294;2022-07-29T15:56:28;14.45;;;3.28;;
49876;SDS011;35771;48.978;9.294;2022-07-29T15:58:55;3.60;;;1.52;;
49876;SDS011;35771;48.978;9.294;2022-07-29T16:01:22;4.03;;;1.50;;
49876;SDS011;35771;48.978;9.294;2022-07-29T16:03:49;2.92;;;1.40;;
49876;SDS011;35771;48.978;9.294;2022-07-29T16:06:17;2.70;;;1.42;;
49876;SDS011;35771;48.978;9.294;2022-07-29T16:08:44;3.35;;;1.30;;
49876;SDS011;35771;48.978;9.294;2022-07-29T16:11:10;5.05;;;1.60;;
49876;SDS011;35771;48.978;9.294;2022-07-29T16:13:37;4.57;;;2.00;;
49876;SDS011;35771;48.978;9.294;2022-07-29T16:16:04;6.07;;;1.40;;
49876;SDS011;35771;48.978;9.294;2022-07-29T16:18:30;4.47;;;1.30;;
49876;SDS011;35771;48.978;9.294;2022-07-29T16:20:57;7.50;;;1.45;;
49876;SDS011;35771;48.978;9.294;2022-07-29T16:23:25;2.72;;;1.20;;
49876;SDS011;35771;48.978;9.294;2022-07-29T16:25:52;11.75;;;2.00;;
49876;SDS011;35771;48.978;9.294;2022-07-29T16:28:18;7.40;;;1.45;;
49876;SDS011;35771;48.978;9.294;2022-07-29T16:30:45;2.40;;;1.33;;
49876;SDS011;35771;48.978;9.294;2022-07-29T16:33:12;9.15;;;1.48;;
49876;SDS011;35771;48.978;9.294;2022-07-29T16:35:38;7.50;;;1.75;;
49876;SDS011;35771;48.978;9.294;2022-07-29T16:38:05;4.40;;;1.23;;
49876;SDS011;35771;48.978;9.294;2022-07-29T16:40:33;6.25;;;1.75;;
49876;SDS011;35771;48.978;9.294;2022-07-29T16:42:59;4.13;;;1.40;;
49876;SDS011;35771;48.978;9.294;2022-07-29T16:45:26;3.65;;;1.45;;
49876;SDS011;35771;48.978;9.294;2022-07-29T16:47:53;2.03;;;1.27;;
49876;SDS011;35771;48.978;9.294;2022-07-29T16:50:21;8.95;;;1.45;;
49876;SDS011;35771;48.978;9.294;2022-07-29T16:52:47;6.90;;;1.42;;
49876;SDS011;35771;48.978;9.294;2022-07-29T16:55:14;3.22;;;1.42;;
49876;SDS011;35771;48.978;9.294;2022-07-29T16:57:42;3.05;;;1.30;;
49876;SDS011;35771;48.978;9.294;2022-07-29T17:00:09;3.33;;;1.35;;
49876;SDS011;35771;48.978;9.294;2022-07-29T17:02:37;3.25;;;1.20;;
49876;SDS011;35771;48.978;9.294;2022-07-29T17:05:04;5.18;;;1.30;;
49876;SDS011;35771;48.978;9.294;2022-07-29T17:07:31;2.67;;;1.13;;
49876;SDS011;35771;48.978;9.294;2022-07-29T17:09:58;4.35;;;1.70;;
49876;SDS011;35771;48.978;9.294;2022-07-29T17:12:25;2.70;;;1.45;;
49876;SDS011;35771;48.978;9.294;2022-07-29T17:14:53;2.78;;;1.10;;
49876;SDS011;35771;48.978;9.294;2022-07-29T17:17:20;4.93;;;1.40;;
49876;SDS011;35771;48.978;9.294;2022-07-29T17:19:46;2.63;;;1.40;;
49876;SDS011;35771;48.978;9.294;2022-07-29T17:22:13;5.15;;;1.45;;
49876;SDS011;35771;48.978;9.294;2022-07-29T17:24:40;7.30;;;1.60;;
49876;SDS011;35771;48.978;9.294;2022-07-29T17:27:07;8.15;;;1.40;;
49876;SDS011;35771;48.978;9.294;2022-07-29T17:29:33;6.80;;;1.42;;
49876;SDS011;35771;48.978;9.294;2022-07-29T17:32:01;1.85;;;1.30;;
49876;SDS011;35771;48.978;9.294;2022-07-29T17:34:28;5.07;;;1.50;;
49876;SDS011;35771;48.978;9.294;2022-07-29T17:36:55;4.05;;;1.30;;
49876;SDS011;35771;48.978;9.294;2022-07-29T17:39:22;4.38;;;1.27;;
49876;SDS011;35771;48.978;9.294;2022-07-29T17:41:49;7.85;;;1.55;;
49876;SDS011;35771;48.978;9.294;2022-07-29T17:44:15;3.90;;;1.33;;
49876;SDS011;35771;48.978;9.294;2022-07-29T17:46:42;5.28;;;1.65;;
49876;SDS011;35771;48.978;9.294;2022-07-29T17:49:10;6.60;;;1.30;;
49876;SDS011;35771;48.978;9.294;2022-07-29T17:51:36;6.35;;;1.70;;
49876;SDS011;35771;48.978;9.294;2022-07-29T17:54:03;4.10;;;1.33;;
49876;SDS011;35771;48.978;9.294;2022-07-29T17:56:30;4.38;;;1.20;;
49876;SDS011;35771;48.978;9.294;2022-07-29T17:58:57;5.05;;;1.38;;
49876;SDS011;35771;48.978;9.294;2022-07-29T18:01:25;4.75;;;1.25;;
49876;SDS011;35771;48.978;9.294;2022-07-29T18:03:52;6.07;;;1.48;;
49876;SDS011;35771;48.978;9.294;2022-07-29T18:06:20;2.08;;;1.30;;
49876;SDS011;35771;48.978;9.294;2022-07-29T18:08:46;4.65;;;1.52;;
49876;SDS011;35771;48.978;9.294;2022-07-29T18:11:13;6.38;;;1.42;;
49876;SDS011;35771;48.978;9.294;2022-07-29T18:13:40;3.45;;;1.48;;
49876;SDS011;35771;48.978;9.294;2022-07-29T18:16:07;2.25;;;1.10;;
49876;SDS011;35771;48.978;9.294;2022-07-29T18:18:34;2.78;;;1.10;;
49876;SDS011;35771;48.978;9.294;2022-07-29T18:21:01;4.38;;;1.40;;
49876;SDS011;35771;48.978;9.294;2022-07-29T18:23:29;4.80;;;2.25;;
49876;SDS011;35771;48.978;9.294;2022-07-29T18:25:55;4.00;;;1.48;;
49876;SDS011;35771;48.978;9.294;2022-07-29T18:28:22;1.95;;;1.10;;
49876;SDS011;35771;48.978;9.294;2022-07-29T18:30:49;2.28;;;1.00;;
49876;SDS011;35771;48.978;9.294;2022-07-29T18:33:15;9.38;;;1.33;;
49876;SDS011;35771;48.978;9.294;2022-07-29T18:35:44;3.47;;;1.55;;
49876;SDS011;35771;48.978;9.294;2022-07-29T18:38:11;3.67;;;2.40;;
49876;SDS011;35771;48.978;9.294;2022-07-29T18:40:39;3.42;;;2.40;;
49876;SDS011;35771;48.978;9.294;2022-07-29T18:43:06;8.05;;;2.60;;
49876;SDS011;35771;48.978;9.294;2022-07-29T18:45:34;7.57;;;2.78;;
49876;SDS011;35771;48.978;9.294;2022-07-29T18:48:01;3.38;;;2.42;;
49876;SDS011;35771;48.978;9.294;2022-07-29T18:50:27;3.92;;;2.60;;
49876;SDS011;35771;48.978;9.294;2022-07-29T18:52:54;8.05;;;2.42;;
49876;SDS011;35771;48.978;9.294;2022-07-29T18:55:22;3.53;;;2.25;;
49876;SDS011;35771;48.978;9.294;2022-07-29T18:57:50;5.00;;;2.50;;
49876;SDS011;35771;48.978;9.294;2022-07-29T19:00:17;9.63;;;2.70;;
49876;SDS011;35771;48.978;9.294;2022-07-29T19:02:43;6.43;;;2.70;;
49876;SDS011;35771;48.978;9.294;2022-07-29T19:05:10;6.93;;;2.67;;
49876;SDS011;35771;48.978;9.294;2022-07-29T19:07:37;4.38;;;2.70;;
49876;SDS011;35771;48.978;9.294;2022-07-29T19:10:04;4.63;;;2.63;;
49876;SDS011;35771;48.978;9.294;2022-07-29T19:12:31;3.92;;;2.60;;
49876;SDS011;35771;48.978;9.294;2022-07-29T19:14:59;6.25;;;1.85;;
49876;SDS011;35771;48.978;9.294;2022-07-29T19:17:25;4.95;;;2.40;;
49876;SDS011;35771;48.978;9.294;2022-07-29T19:19:52;3.67;;;2.13;;
49876;SDS011;35771;48.978;9.294;2022-07-29T19:22:18;6.75;;;2.13;;
49876;SDS011;35771;48.978;9.294;2022-07-29T19:24:46;3.17;;;2.42;;
49876;SDS011;35771;48.978;9.294;2022-07-29T19:27:12;5.28;;;2.40;;
49876;SDS011;35771;48.978;9.294;2022-07-29T19:29:39;3.15;;;2.47;;
49876;SDS011;35771;48.978;9.294;2022-07-29T19:32:07;6.25;;;2.60;;
49876;SDS011;35771;48.978;9.294;2022-07-29T19:34:33;3.20;;;2.30;;
49876;SDS011;35771;48.978;9.294;2022-07-29T19:37:00;5.07;;;3.22;;
49876;SDS011;35771;48.978;9.294;2022-07-29T19:39:27;4.97;;;2.60;;
